createdAt,value
2022-11-26T00:02:44.222Z,613.94
2022-11-26T00:05:57.607Z,600.66
2022-11-26T00:09:06.406Z,553.65
2022-11-26T00:12:20.274Z,526.16
2022-11-26T00:15:30.580Z,486.83
2022-11-26T00:18:36.508Z,482.38
2022-11-26T00:21:46.400Z,495.71
2022-11-26T00:24:53.476Z,512.24
2022-11-26T00:28:02.616Z,483.32
2022-11-26T00:31:17.640Z,464.44
2022-11-26T00:34:24.419Z,477.55
2022-11-26T00:37:46.202Z,490.25
2022-11-26T00:40:53.105Z,516.50
2022-11-26T00:43:59.058Z,492.06
2022-11-26T00:47:06.111Z,463.13
2022-11-26T00:50:18.706Z,444.97
2022-11-26T00:53:30.318Z,439.43
2022-11-26T00:56:38.247Z,456.71
2022-11-26T00:59:45.212Z,447.33
2022-11-26T01:02:52.185Z,426.90
2022-11-26T01:06:02.654Z,429.55
2022-11-26T01:09:22.238Z,430.86
2022-11-26T01:12:29.009Z,445.79
2022-11-26T01:15:34.877Z,469.07
2022-11-26T01:18:41.796Z,483.06
2022-11-26T01:21:47.852Z,479.16
2022-11-26T01:24:57.376Z,456.79
2022-11-26T01:28:03.487Z,469.23
2022-11-26T01:31:18.582Z,475.31
2022-11-26T01:34:24.529Z,475.63
2022-11-26T01:37:31.374Z,484.52
2022-11-26T01:41:05.471Z,495.63
2022-11-26T01:44:22.156Z,501.89
2022-11-26T01:47:31.731Z,490.13
2022-11-26T01:51:00.672Z,479.33
2022-11-26T01:54:07.031Z,451.33
2022-11-26T01:57:23.938Z,445.23
2022-11-26T02:00:29.972Z,435.41
2022-11-26T02:03:47.049Z,436.48
2022-11-26T02:06:55.239Z,424.18
2022-11-26T02:10:02.135Z,421.05
2022-11-26T02:13:10.971Z,413.68
2022-11-26T02:16:37.200Z,403.93
2022-11-26T02:20:28.203Z,403.43
2022-11-26T02:24:12.745Z,406.10
2022-11-26T02:28:11.870Z,401.72
2022-11-26T02:31:32.720Z,391.06
2022-11-26T02:34:51.659Z,393.28
2022-11-26T02:38:05.918Z,396.41
2022-11-26T02:41:12.799Z,388.51
2022-11-26T02:44:24.194Z,405.18
2022-11-26T02:47:37.668Z,406.96
2022-11-26T02:50:51.614Z,420.63
2022-11-26T02:54:00.060Z,424.40
2022-11-26T02:57:14.947Z,426.42
2022-11-26T03:00:23.504Z,431.00
2022-11-26T03:03:41.443Z,430.41
2022-11-26T03:06:50.965Z,424.07
2022-11-26T03:10:00.953Z,417.80
2022-11-26T03:13:07.751Z,395.83
2022-11-26T03:16:13.694Z,387.71
2022-11-26T03:19:23.108Z,388.34
2022-11-26T03:22:29.677Z,388.59
2022-11-26T03:25:37.014Z,382.72
2022-11-26T03:28:43.068Z,389.83
2022-11-26T03:31:49.947Z,401.67
2022-11-26T03:34:58.574Z,402.98
2022-11-26T03:38:05.347Z,400.60
2022-11-26T03:41:11.277Z,396.39
2022-11-26T03:44:18.459Z,398.74
2022-11-26T03:47:24.794Z,408.38
2022-11-26T03:50:34.155Z,398.79
2022-11-26T03:53:40.035Z,399.76
2022-11-26T03:56:46.783Z,491.78
2022-11-26T03:59:52.820Z,475.84
2022-11-26T04:02:59.683Z,400.04
2022-11-26T04:06:09.735Z,391.34
2022-11-26T04:09:16.691Z,391.25
2022-11-26T04:12:22.736Z,391.80
2022-11-26T04:15:29.483Z,408.08
2022-11-26T04:18:36.025Z,391.08
2022-11-26T04:21:45.635Z,374.98
2022-11-26T04:24:51.764Z,373.69
2022-11-26T04:27:59.146Z,373.72
2022-11-26T04:31:05.141Z,352.82
2022-11-26T04:34:11.916Z,351.81
2022-11-26T04:37:20.525Z,361.88
2022-11-26T04:40:27.250Z,383.71
2022-11-26T04:43:33.372Z,370.99
2022-11-26T04:46:40.194Z,379.56
2022-11-26T04:49:46.181Z,362.78
2022-11-26T04:52:55.782Z,386.77
2022-11-26T04:56:01.781Z,390.01
2022-11-26T04:59:08.502Z,372.03
2022-11-26T05:02:14.867Z,376.18
2022-11-26T05:05:21.979Z,378.70
2022-11-26T05:08:30.537Z,380.22
2022-11-26T05:11:37.291Z,379.63
2022-11-26T05:14:43.257Z,382.72
2022-11-26T05:17:49.969Z,392.27
2022-11-26T05:20:55.912Z,395.58
2022-11-26T05:24:05.469Z,395.74
2022-11-26T05:27:12.435Z,390.71
2022-11-26T05:30:19.781Z,390.46
2022-11-26T05:33:25.685Z,390.41
2022-11-26T05:36:32.371Z,405.52
2022-11-26T05:39:41.079Z,412.83
2022-11-26T05:42:48.214Z,415.32
2022-11-26T05:45:54.193Z,421.60
2022-11-26T05:49:01.142Z,420.97
2022-11-26T05:52:07.318Z,441.45
2022-11-26T05:55:16.731Z,477.95
2022-11-26T05:58:22.944Z,430.36
2022-11-26T06:01:29.751Z,403.01
2022-11-26T06:04:36.726Z,405.32
2022-11-26T06:07:45.092Z,390.65
2022-11-26T06:10:53.916Z,396.84
2022-11-26T06:14:00.639Z,438.76
2022-11-26T06:17:06.615Z,634.57
2022-11-26T06:20:15.609Z,542.42
2022-11-26T06:23:21.604Z,460.91
2022-11-26T06:26:31.173Z,408.90
2022-11-26T06:29:37.405Z,370.91
2022-11-26T06:32:44.217Z,354.19
2022-11-26T06:35:50.129Z,385.17
2022-11-26T06:38:56.778Z,398.64
2022-11-26T06:42:05.319Z,356.73
2022-11-26T06:45:14.211Z,392.62
2022-11-26T06:48:20.131Z,396.94
2022-11-26T06:51:27.974Z,331.68
2022-11-26T06:54:34.124Z,292.24
2022-11-26T06:57:43.450Z,284.33
2022-11-26T07:00:49.397Z,284.31
2022-11-26T07:03:56.855Z,267.75
2022-11-26T07:07:02.825Z,271.03
2022-11-26T07:10:11.395Z,260.60
2022-11-26T07:13:20.014Z,247.23
2022-11-26T07:16:28.146Z,242.88
2022-11-26T07:19:34.217Z,238.07
2022-11-26T07:22:41.247Z,239.53
2022-11-26T07:25:47.347Z,243.28
2022-11-26T07:28:56.982Z,240.35
2022-11-26T07:32:03.015Z,238.51
2022-11-26T07:35:11.313Z,241.87
2022-11-26T07:38:17.418Z,239.07
2022-11-26T07:41:25.672Z,222.03
2022-11-26T07:44:34.551Z,221.49
2022-11-26T07:47:41.523Z,219.79
2022-11-26T07:50:48.148Z,226.02
2022-11-26T07:53:56.573Z,225.27
2022-11-26T07:57:02.521Z,224.42
2022-11-26T08:00:14.096Z,229.98
2022-11-26T08:03:20.041Z,248.81
2022-11-26T08:06:30.484Z,261.55
2022-11-26T08:09:36.667Z,317.55
2022-11-26T08:12:43.795Z,369.14
2022-11-26T08:15:54.223Z,355.64
2022-11-26T08:19:04.077Z,392.09
2022-11-26T08:22:10.095Z,427.57
2022-11-26T08:25:16.925Z,443.40
2022-11-26T08:28:23.197Z,463.55
2022-11-26T08:31:35.165Z,424.65
2022-11-26T08:34:42.300Z,404.18
2022-11-26T08:37:49.100Z,416.20
2022-11-26T08:40:55.280Z,440.02
2022-11-26T08:44:06.517Z,459.72
2022-11-26T08:47:16.787Z,532.75
2022-11-26T08:50:23.635Z,555.14
2022-11-26T08:53:32.427Z,500.35
2022-11-26T08:56:40.236Z,480.45
2022-11-26T08:59:46.111Z,475.41
2022-11-26T09:02:55.511Z,489.33
2022-11-26T09:06:04.577Z,489.39
2022-11-26T09:09:15.857Z,495.54
2022-11-26T09:12:22.092Z,515.16
2022-11-26T09:15:29.078Z,515.70
2022-11-26T09:18:37.592Z,555.36
2022-11-26T09:21:44.442Z,510.70
2022-11-26T09:24:50.459Z,516.89
2022-11-26T09:27:57.257Z,458.76
2022-11-26T09:31:04.880Z,458.43
2022-11-26T09:34:15.435Z,409.19
2022-11-26T09:37:21.298Z,376.41
2022-11-26T09:40:50.649Z,357.81
2022-11-26T09:44:22.460Z,355.21
2022-11-26T09:47:38.866Z,373.04
2022-11-26T09:50:54.005Z,359.95
2022-11-26T09:54:04.701Z,387.42
2022-11-26T09:57:30.563Z,417.81
2022-11-26T10:00:44.174Z,438.30
2022-11-26T10:03:50.474Z,595.74
2022-11-26T10:07:17.517Z,558.16
2022-11-26T10:10:35.408Z,463.19
2022-11-26T10:13:57.399Z,511.79
2022-11-26T10:17:29.197Z,618.81
2022-11-26T10:21:18.210Z,645.91
2022-11-26T10:24:39.518Z,570.13
2022-11-26T10:27:47.206Z,580.90
2022-11-26T10:31:02.727Z,481.63
2022-11-26T10:34:20.260Z,433.90
2022-11-26T10:37:29.268Z,390.56
2022-11-26T10:40:39.421Z,418.75
2022-11-26T10:43:45.486Z,397.05
2022-11-26T10:46:52.243Z,454.45
2022-11-26T10:53:58.697Z,364.03
2022-11-26T10:57:21.981Z,326.18
2022-11-26T11:00:42.169Z,303.14
2022-11-26T11:04:10.772Z,293.71
2022-11-26T11:07:44.312Z,324.12
2022-11-26T11:10:59.620Z,292.42
2022-11-26T11:14:09.051Z,280.16
2022-11-26T11:17:36.464Z,266.80
2022-11-26T11:20:55.006Z,282.09
2022-11-26T11:24:12.363Z,280.31
2022-11-26T11:27:30.982Z,261.21
2022-11-26T11:30:43.624Z,259.46
2022-11-26T11:33:52.155Z,253.90
2022-11-26T11:37:11.728Z,250.02
2022-11-26T11:40:27.756Z,260.11
2022-11-26T11:43:40.040Z,284.20
2022-11-26T11:47:24.484Z,251.11
2022-11-26T11:50:39.323Z,257.56
2022-11-26T11:54:07.713Z,270.72
2022-11-26T11:57:38.355Z,274.56
2022-11-26T12:00:58.472Z,286.36
2022-11-26T12:04:46.341Z,288.98
2022-11-26T12:08:10.948Z,314.35
2022-11-26T12:11:41.163Z,366.81
2022-11-26T12:14:55.453Z,362.64
2022-11-26T12:18:16.419Z,373.82
2022-11-26T12:21:42.506Z,505.32
2022-11-26T12:24:58.035Z,517.79
2022-11-26T12:28:18.180Z,462.07
2022-11-26T12:31:35.864Z,467.19
2022-11-26T12:34:52.947Z,546.87
2022-11-26T12:38:10.874Z,512.70
2022-11-26T12:41:27.500Z,461.65
2022-11-26T12:44:43.091Z,415.05
2022-11-26T12:48:01.058Z,370.12
2022-11-26T12:51:27.467Z,424.34
2022-11-26T12:54:56.929Z,447.72
2022-11-26T12:58:17.091Z,468.19
2022-11-26T13:01:24.648Z,421.56
2022-11-26T13:04:39.435Z,394.58
2022-11-26T13:08:15.388Z,384.40
2022-11-26T13:11:43.851Z,353.06
2022-11-26T13:15:04.108Z,289.25
2022-11-26T13:18:32.606Z,289.05
2022-11-26T13:22:04.140Z,262.69
2022-11-26T13:25:47.592Z,271.85
2022-11-26T13:29:33.028Z,248.76
2022-11-26T13:33:32.400Z,235.29
2022-11-26T13:37:09.550Z,241.31
2022-11-26T13:40:57.375Z,279.34
2022-11-26T13:44:42.415Z,310.03
2022-11-26T13:47:58.154Z,311.45
2022-11-26T13:51:18.980Z,262.91
2022-11-26T13:54:33.871Z,252.76
2022-11-26T13:57:49.355Z,249.43
2022-11-26T14:00:58.080Z,254.61
2022-11-26T14:04:08.084Z,249.51
2022-11-26T14:07:24.134Z,240.21
2022-11-26T14:10:46.472Z,252.02
2022-11-26T14:14:37.663Z,272.80
2022-11-26T14:18:00.339Z,308.76
2022-11-26T14:21:16.821Z,287.14
2022-11-26T14:25:02.802Z,266.56
2022-11-26T14:28:13.406Z,257.58
2022-11-26T14:31:27.926Z,249.35
2022-11-26T14:34:44.401Z,275.65
2022-11-26T14:37:57.024Z,259.96
2022-11-26T14:41:05.622Z,260.87
2022-11-26T14:44:17.589Z,251.19
2022-11-26T14:47:25.771Z,252.52
2022-11-26T14:50:39.013Z,258.48
2022-11-26T14:53:51.757Z,262.03
2022-11-26T14:57:10.518Z,259.17
2022-11-26T15:00:27.997Z,250.25
2022-11-26T15:03:35.378Z,255.65
2022-11-26T15:06:46.336Z,270.44
2022-11-26T15:10:05.592Z,468.73
2022-11-26T15:13:26.237Z,433.50
2022-11-26T15:16:41.680Z,475.22
2022-11-26T15:19:52.023Z,526.93
2022-11-26T15:23:03.149Z,532.59
2022-11-26T15:26:09.949Z,469.01
2022-11-26T15:29:41.417Z,434.42
2022-11-26T15:32:47.520Z,427.99
2022-11-26T15:35:57.520Z,422.09
2022-11-26T15:39:08.217Z,491.81
2022-11-26T15:42:32.595Z,737.51
2022-11-26T15:45:44.568Z,689.52
2022-11-26T15:48:57.222Z,622.93
2022-11-26T15:52:09.275Z,579.90
2022-11-26T15:55:33.257Z,621.49
2022-11-26T15:58:44.521Z,695.72
2022-11-26T16:01:54.071Z,581.11
2022-11-26T16:05:02.342Z,460.58
2022-11-26T16:08:30.495Z,413.04
2022-11-26T16:11:39.401Z,392.23
2022-11-26T16:14:46.592Z,371.90
2022-11-26T16:17:56.745Z,355.04
2022-11-26T16:21:11.783Z,366.45
2022-11-26T16:24:33.751Z,277.36
2022-11-26T16:27:40.807Z,275.64
2022-11-26T16:30:48.542Z,335.18
2022-11-26T16:33:58.917Z,343.80
2022-11-26T16:37:19.205Z,358.05
2022-11-26T16:40:27.471Z,308.95
2022-11-26T16:43:33.826Z,277.57
2022-11-26T16:46:42.480Z,259.16
2022-11-26T16:49:51.891Z,251.10
2022-11-26T16:52:59.244Z,249.17
2022-11-26T16:56:05.369Z,247.61
2022-11-26T16:59:28.821Z,276.66
2022-11-26T17:02:38.167Z,268.03
2022-11-26T17:05:47.800Z,265.12
2022-11-26T17:08:55.020Z,285.73
2022-11-26T17:12:01.900Z,380.07
2022-11-26T17:15:09.105Z,403.10
2022-11-26T17:18:22.416Z,379.01
2022-11-26T17:21:31.158Z,353.99
2022-11-26T17:24:38.354Z,389.73
2022-11-26T17:27:45.642Z,400.75
2022-11-26T17:30:53.732Z,363.47
2022-11-26T17:33:59.911Z,393.90
2022-11-26T17:37:16.879Z,418.06
2022-11-26T17:40:27.293Z,354.68
2022-11-26T17:43:34.527Z,344.93
2022-11-26T17:47:08.995Z,337.41
2022-11-26T17:50:09.973Z,345.17
2022-11-26T17:53:18.515Z,416.26
2022-11-26T17:56:27.587Z,396.02
2022-11-26T17:59:34.108Z,394.85
2022-11-26T18:02:41.156Z,367.87
2022-11-26T18:05:47.301Z,352.43
2022-11-26T18:08:56.733Z,354.43
2022-11-26T18:12:04.456Z,381.82
2022-11-26T18:15:12.446Z,465.64
2022-11-26T18:18:18.454Z,485.53
2022-11-26T18:21:25.207Z,463.47
2022-11-26T18:24:34.111Z,497.19
2022-11-26T18:27:40.924Z,481.00
2022-11-26T18:30:47.037Z,464.20
2022-11-26T18:33:54.470Z,481.51
2022-11-26T18:37:00.481Z,438.71
2022-11-26T18:40:14.144Z,476.66
2022-11-26T18:43:20.257Z,533.18
2022-11-26T18:46:27.307Z,494.21
2022-11-26T18:49:33.525Z,549.58
2022-11-26T18:52:43.225Z,613.46
2022-11-26T18:55:52.061Z,576.55
2022-11-26T18:58:59.615Z,594.26
2022-11-26T19:02:06.065Z,618.61
2022-11-26T19:05:13.053Z,656.68
2022-11-26T19:08:19.847Z,597.28
2022-11-26T19:11:30.050Z,558.35
2022-11-26T19:14:35.948Z,587.42
2022-11-26T19:17:42.764Z,535.29
2022-11-26T19:20:55.643Z,577.19
2022-11-26T19:24:06.517Z,484.21
2022-11-26T19:27:16.571Z,467.58
2022-11-26T19:30:23.800Z,467.34
2022-11-26T19:33:32.672Z,454.25
2022-11-26T19:36:41.050Z,459.56
2022-11-26T19:39:47.887Z,463.40
2022-11-26T19:42:57.378Z,461.64
2022-11-26T19:46:08.903Z,455.67
2022-11-26T19:49:17.596Z,461.53
2022-11-26T19:52:23.584Z,544.53
2022-11-26T19:55:30.396Z,648.57
2022-11-26T19:58:40.353Z,637.50
2022-11-26T20:01:47.284Z,687.84
2022-11-26T20:04:53.235Z,624.76
2022-11-26T20:08:00.161Z,617.28
2022-11-26T20:11:07.683Z,645.11
2022-11-26T20:14:18.319Z,712.12
2022-11-26T20:17:24.651Z,737.32
2022-11-26T20:20:31.374Z,690.76
2022-11-26T20:23:37.296Z,791.47
2022-11-26T20:26:48.819Z,676.83
2022-11-26T20:29:57.288Z,606.39
2022-11-26T20:33:04.039Z,644.56
2022-11-26T20:36:13.250Z,536.51
2022-11-26T20:39:22.501Z,462.40
2022-11-26T20:42:28.482Z,452.42
2022-11-26T20:45:38.856Z,480.58
2022-11-26T20:48:47.596Z,485.02
2022-11-26T20:51:54.350Z,946.11
2022-11-26T20:55:00.255Z,783.41
2022-11-26T20:58:07.031Z,723.85
2022-11-26T21:01:21.139Z,561.47
2022-11-26T21:04:27.905Z,621.52
2022-11-26T21:07:34.004Z,589.90
2022-11-26T21:10:42.880Z,541.35
2022-11-26T21:13:49.034Z,555.52
2022-11-26T21:16:58.426Z,519.81
2022-11-26T21:20:04.519Z,520.17
2022-11-26T21:23:13.191Z,558.25
2022-11-26T21:26:22.157Z,526.77
2022-11-26T21:29:28.996Z,476.53
2022-11-26T21:32:37.679Z,457.76
2022-11-26T21:35:44.598Z,470.53
2022-11-26T21:38:52.614Z,454.46
2022-11-26T21:41:59.323Z,489.51
2022-11-26T21:45:05.466Z,466.03
2022-11-26T21:48:14.900Z,474.88
2022-11-26T21:51:22.892Z,472.70
2022-11-26T21:54:30.683Z,483.06
2022-11-26T21:57:38.701Z,449.99
2022-11-26T22:00:47.046Z,720.94
2022-11-26T22:03:59.235Z,478.52
2022-11-26T22:07:06.795Z,359.51
2022-11-26T22:10:14.568Z,354.74
2022-11-26T22:13:21.337Z,378.53
2022-11-26T22:16:30.686Z,480.80
2022-11-26T22:19:40.135Z,348.43
2022-11-26T22:22:46.263Z,346.39
2022-11-26T22:25:53.452Z,358.99
2022-11-26T22:29:00.109Z,552.45
2022-11-26T22:32:07.433Z,383.61
2022-11-26T22:35:16.157Z,590.47
2022-11-26T22:38:22.871Z,367.07
2022-11-26T22:41:29.511Z,305.03
2022-11-26T22:44:36.967Z,311.18
2022-11-26T22:47:42.873Z,312.12
2022-11-26T22:50:57.171Z,314.23
2022-11-26T22:54:05.227Z,313.13
2022-11-26T22:57:12.008Z,320.95
2022-11-26T23:00:51.818Z,319.95
2022-11-26T23:04:00.895Z,343.10
2022-11-26T23:07:09.852Z,337.71
2022-11-26T23:10:16.698Z,340.46
2022-11-26T23:13:22.766Z,317.90
2022-11-26T23:16:31.094Z,320.19
2022-11-26T23:19:37.233Z,356.50
2022-11-26T23:22:46.595Z,358.07
2022-11-26T23:25:52.546Z,1269.22
2022-11-26T23:29:02.006Z,2134.45
2022-11-26T23:32:08.137Z,345.13
2022-11-26T23:35:15.264Z,336.82
2022-11-26T23:38:24.048Z,345.32
2022-11-26T23:41:31.676Z,346.20
2022-11-26T23:44:37.576Z,347.39
2022-11-26T23:47:44.204Z,347.22
2022-11-26T23:50:50.062Z,333.75
2022-11-26T23:54:00.145Z,316.13
2022-11-26T23:57:09.249Z,327.33
